Tyner, New York
Current Conditions -  °F | °C
As of 4:53 AM on Saturday 22 Nov 2014 (Local Time) from KBGM Reporting Station
Clear Clear  
Wind Chill:   Ceiling: Unl
Heat Index: 18°   Visibility: 10mi
Dew Point:   Wind: 13mph
Humidity: 68%   Direction: 220°SW
Pressure: 30.32"   Gusts: NA
Location:  42.4446°N, 75.6311°W
Report Text: KBGM 220953Z AUTO 22011KT 10SM CLR M08/M13 A3032 RMK AO2 SLP293 T10781128
Loading
Personal Weather Stations






























Interactive Weather Map New forecast layout! Learn more

10-Day Weather Forecast

Advertisements
Track Severe Weather on mobile